Time;durP1;ratioP1;P1;durP2;ratioP2;P2;SDS_P1;SDS_P2;PMS_P1;PMS_P2;Temp;Humidity;BMP_temperature;BMP_pressure;BME280_temperature;BME280_humidity;BME280_pressure;Samples;Min_cycle;Max_cycle;Signal;HPM_P1;HPM_P2
2023/12/09 00:00:32;;;;;;;12.07;7.33;;;;;;;;;;5044219;28;20232;-87
2023/12/09 00:03:34;;;;;;;9.40;6.60;;;;;;;;;;5053112;28;20198;-88
2023/12/09 00:06:26;;;;;;;17.70;7.60;;;;;;;;;;5037397;28;20245;-90
2023/12/09 00:09:11;;;;;;;9.97;5.73;;;;;;;;;;5036764;28;20270;-89
2023/12/09 00:11:41;;;;;;;8.13;4.87;;;;;;;;;;5036347;28;20760;-88
2023/12/09 00:14:21;;;;;;;14.23;8.20;;;;;;;;;;5037578;28;20192;-88
2023/12/09 00:16:58;;;;;;;19.63;9.37;;;;;;;;;;5032258;28;20227;-90
2023/12/09 00:19:41;;;;;;;34.33;11.40;;;;;;;;;;5034738;28;20206;-88
2023/12/09 00:36:59;;;;;;;;;;;;;;;;;;;;;
2023/12/09 00:39:52;;;;;;;10.00;7.10;;;;;;;;;;5015751;28;20235;-88
2023/12/09 00:42:30;;;;;;;7.53;5.90;;;;;;;;;;5015471;28;20201;-88
2023/12/09 00:50:34;;;;;;;11.50;6.00;;;;;;;;;;5012774;28;20673;-87
2023/12/09 00:53:16;;;;;;;14.50;5.93;;;;;;;;;;5015190;28;20223;-88
2023/12/09 01:02:05;;;;;;;13.97;6.30;;;;;;;;;;5013336;28;20581;-88
2023/12/09 01:05:09;;;;;;;12.50;7.33;;;;;;;;;;5015260;28;20210;-87
2023/12/09 01:07:54;;;;;;;17.20;8.20;;;;;;;;;;5011832;28;20705;-88
2023/12/09 01:10:43;;;;;;;14.50;6.80;;;;;;;;;;5014741;28;20200;-88
2023/12/09 01:19:23;;;;;;;14.57;7.40;;;;;;;;;;5009301;28;20595;-87
2023/12/09 01:22:07;;;;;;;14.50;6.43;;;;;;;;;;5014300;28;20196;-87
2023/12/09 01:24:45;;;;;;;14.27;6.57;;;;;;;;;;5013684;28;20247;-89
2023/12/09 01:27:26;;;;;;;14.57;5.00;;;;;;;;;;5014563;28;20720;-89
2023/12/09 01:29:57;;;;;;;13.53;6.57;;;;;;;;;;5015187;28;20280;-88
2023/12/09 01:35:19;;;;;;;6.47;5.07;;;;;;;;;;5013434;28;20745;-89
2023/12/09 01:37:58;;;;;;;10.30;5.63;;;;;;;;;;5015287;28;20292;-88
2023/12/09 01:40:36;;;;;;;9.70;4.53;;;;;;;;;;5013903;28;20197;-88
2023/12/09 01:43:16;;;;;;;10.03;5.20;;;;;;;;;;5017256;28;20234;-87
2023/12/09 01:45:56;;;;;;;14.47;6.17;;;;;;;;;;5023202;28;20201;-87
2023/12/09 01:48:37;;;;;;;10.50;5.67;;;;;;;;;;5021339;28;20192;-88
2023/12/09 01:51:06;;;;;;;8.23;5.73;;;;;;;;;;5015179;28;20193;-87
2023/12/09 01:53:36;;;;;;;13.27;5.67;;;;;;;;;;5014290;28;20228;-88
2023/12/09 01:56:17;;;;;;;9.87;3.90;;;;;;;;;;5014167;28;20708;-87
2023/12/09 01:58:49;;;;;;;10.80;4.67;;;;;;;;;;5014880;28;20224;-87
2023/12/09 02:01:19;;;;;;;10.70;5.53;;;;;;;;;;5012304;28;20615;-86
2023/12/09 02:03:49;;;;;;;7.00;4.90;;;;;;;;;;5013498;28;20228;-89
2023/12/09 02:06:19;;;;;;;8.67;5.47;;;;;;;;;;5015044;28;20227;-89
2023/12/09 02:08:52;;;;;;;8.17;5.33;;;;;;;;;;5014639;28;20228;-88
2023/12/09 02:11:32;;;;;;;10.57;6.03;;;;;;;;;;5015344;28;20205;-89
2023/12/09 02:14:07;;;;;;;7.20;3.83;;;;;;;;;;5014866;28;20204;-87
2023/12/09 02:19:28;;;;;;;10.77;4.50;;;;;;;;;;5014016;28;20204;-88
2023/12/09 02:22:05;;;;;;;12.10;5.33;;;;;;;;;;5014025;28;20200;-88
2023/12/09 02:24:46;;;;;;;5.60;5.10;;;;;;;;;;5013889;28;20200;-88
2023/12/09 02:27:18;;;;;;;7.70;4.60;;;;;;;;;;5013819;28;20251;-88
2023/12/09 02:29:58;;;;;;;6.40;3.87;;;;;;;;;;5012775;28;20216;-88
2023/12/09 02:35:22;;;;;;;11.37;4.47;;;;;;;;;;5003956;28;20205;-88
2023/12/09 02:38:01;;;;;;;5.63;4.40;;;;;;;;;;5014319;28;20263;-90
2023/12/09 02:40:47;;;;;;;7.57;4.17;;;;;;;;;;5015702;28;20216;-89
2023/12/09 02:43:29;;;;;;;12.50;6.47;;;;;;;;;;5015493;28;20652;-88
2023/12/09 02:46:00;;;;;;;9.17;5.17;;;;;;;;;;5013125;28;20200;-87
2023/12/09 02:48:51;;;;;;;9.63;4.83;;;;;;;;;;5018485;28;20331;-87
2023/12/09 02:51:28;;;;;;;9.90;5.67;;;;;;;;;;5020168;28;20296;-89
2023/12/09 02:54:15;;;;;;;10.47;5.93;;;;;;;;;;5012711;28;20204;-89
2023/12/09 02:56:48;;;;;;;11.00;5.40;;;;;;;;;;5014211;28;20264;-88
2023/12/09 02:59:21;;;;;;;6.03;4.10;;;;;;;;;;5015131;28;20193;-88
2023/12/09 03:02:02;;;;;;;10.10;5.87;;;;;;;;;;5013686;28;20641;-89
2023/12/09 03:04:45;;;;;;;7.13;5.07;;;;;;;;;;5014414;28;20222;-89
2023/12/09 03:07:38;;;;;;;4.83;4.27;;;;;;;;;;5015066;28;20255;-88
2023/12/09 03:10:21;;;;;;;7.60;4.83;;;;;;;;;;4934812;29;20204;-88
2023/12/09 03:13:20;;;;;;;7.03;4.23;;;;;;;;;;5002084;28;20196;-89
2023/12/09 03:16:00;;;;;;;4.40;3.80;;;;;;;;;;5009358;28;20204;-89
2023/12/09 03:21:25;;;;;;;7.77;4.57;;;;;;;;;;5015216;28;20207;-87
2023/12/09 03:23:53;;;;;;;6.63;4.00;;;;;;;;;;5017332;28;20197;-87
2023/12/09 03:26:24;;;;;;;5.40;3.60;;;;;;;;;;5017197;28;20235;-89
2023/12/09 03:31:48;;;;;;;7.20;4.40;;;;;;;;;;5016654;28;20258;-89
2023/12/09 03:37:21;;;;;;;3.67;3.37;;;;;;;;;;5024512;28;20197;-88
2023/12/09 03:40:11;;;;;;;5.10;3.83;;;;;;;;;;5024249;28;20220;-89
2023/12/09 03:43:00;;;;;;;8.50;4.40;;;;;;;;;;5016219;28;20304;-90
2023/12/09 03:45:32;;;;;;;3.43;3.13;;;;;;;;;;5017273;28;20249;-88
2023/12/09 03:48:08;;;;;;;7.00;4.23;;;;;;;;;;5016150;28;20228;-88
2023/12/09 03:50:57;;;;;;;8.63;4.60;;;;;;;;;;5016947;28;20204;-88
2023/12/09 03:53:31;;;;;;;8.87;4.40;;;;;;;;;;5015279;28;20200;-88
2023/12/09 04:03:10;;;;;;;;;;;;;;;;;;;;;
2023/12/09 04:06:10;;;;;;;9.20;4.70;;;;;;;;;;5029892;28;20195;-90
2023/12/09 04:11:41;;;;;;;5.67;3.80;;;;;;;;;;5064041;28;20201;-88
2023/12/09 04:14:44;;;;;;;;;;;;;;;;;;;;;
2023/12/09 04:17:31;;;;;;;5.00;3.47;;;;;;;;;;5079119;28;20681;-89
2023/12/09 04:20:15;;;;;;;8.57;4.43;;;;;;;;;;5073564;28;20548;-89
2023/12/09 04:22:58;;;;;;;8.27;4.83;;;;;;;;;;5079692;28;20271;-90
2023/12/09 04:31:17;;;;;;;5.87;3.83;;;;;;;;;;5085338;28;20684;-89
2023/12/09 04:33:56;;;;;;;6.63;3.93;;;;;;;;;;5074032;28;20202;-89
2023/12/09 04:36:25;;;;;;;3.87;3.40;;;;;;;;;;5075016;28;20203;-88
2023/12/09 04:39:07;;;;;;;7.77;4.50;;;;;;;;;;5063640;28;20246;-89
2023/12/09 04:41:37;;;;;;;5.33;4.33;;;;;;;;;;5051982;28;20238;-89
2023/12/09 04:44:23;;;;;;;4.70;3.87;;;;;;;;;;5049991;28;20729;-89
2023/12/09 04:47:16;;;;;;;8.30;4.70;;;;;;;;;;5051798;28;20203;-89
2023/12/09 04:49:49;;;;;;;5.60;3.43;;;;;;;;;;5051608;28;20698;-89
2023/12/09 04:52:32;;;;;;;6.50;4.27;;;;;;;;;;5051560;28;20195;-89
2023/12/09 04:55:02;;;;;;;6.30;3.83;;;;;;;;;;5055675;28;20227;-89
2023/12/09 05:00:26;;;;;;;5.60;3.37;;;;;;;;;;5064378;28;20208;-88
2023/12/09 05:03:10;;;;;;;4.00;2.47;;;;;;;;;;5066455;28;20195;-91
2023/12/09 05:05:53;;;;;;;3.70;3.47;;;;;;;;;;5059987;28;20230;-89
2023/12/09 05:08:22;;;;;;;7.17;3.80;;;;;;;;;;5056617;28;20202;-90
2023/12/09 05:10:53;;;;;;;4.43;3.57;;;;;;;;;;5055855;28;20203;-89
2023/12/09 05:13:26;;;;;;;6.80;3.57;;;;;;;;;;5042214;28;20223;-90
2023/12/09 05:16:00;;;;;;;6.13;3.53;;;;;;;;;;5041448;28;20286;-89
2023/12/09 05:18:52;;;;;;;10.97;2.87;;;;;;;;;;5042557;28;20695;-89
2023/12/09 05:24:14;;;;;;;3.27;3.00;;;;;;;;;;5037993;28;20235;-89
2023/12/09 05:26:53;;;;;;;;;;;;;;;;;;;;;
2023/12/09 05:29:23;;;;;;;4.90;3.03;;;;;;;;;;5048663;28;20279;-88
2023/12/09 05:31:56;;;;;;;7.33;4.53;;;;;;;;;;5057210;28;20248;-88
2023/12/09 05:34:30;;;;;;;6.57;3.20;;;;;;;;;;5057659;28;20185;-89
2023/12/09 05:40:14;;;;;;;3.90;3.57;;;;;;;;;;5032900;28;20231;-89
2023/12/09 05:42:46;;;;;;;4.27;3.33;;;;;;;;;;5046092;28;20228;-90
2023/12/09 05:45:15;;;;;;;5.00;4.43;;;;;;;;;;5046688;28;20664;-89
2023/12/09 05:47:46;;;;;;;8.67;4.03;;;;;;;;;;5050024;28;20220;-88
2023/12/09 05:50:41;;;;;;;9.50;4.37;;;;;;;;;;5056113;28;20192;-88
2023/12/09 05:53:41;;;;;;;5.37;4.07;;;;;;;;;;5045542;28;20212;-90
2023/12/09 05:56:33;;;;;;;10.37;5.40;;;;;;;;;;5039017;28;20226;-89
2023/12/09 05:59:13;;;;;;;10.77;5.73;;;;;;;;;;5034405;28;20676;-90
2023/12/09 06:01:53;;;;;;;6.50;4.70;;;;;;;;;;5035437;28;20653;-88
2023/12/09 06:04:25;;;;;;;10.37;5.03;;;;;;;;;;5036166;28;20204;-89
2023/12/09 06:06:58;;;;;;;5.47;3.47;;;;;;;;;;5035824;28;20224;-90
2023/12/09 06:09:37;;;;;;;6.90;3.73;;;;;;;;;;5029010;28;20662;-89
2023/12/09 06:12:09;;;;;;;5.10;2.83;;;;;;;;;;5036636;28;20196;-87
2023/12/09 06:14:44;;;;;;;3.20;3.00;;;;;;;;;;5035968;28;20195;-88
2023/12/09 06:17:16;;;;;;;6.37;4.20;;;;;;;;;;5034697;28;20218;-89
2023/12/09 06:22:27;;;;;;;5.87;3.90;;;;;;;;;;5032951;28;20236;-88
2023/12/09 06:24:58;;;;;;;5.90;4.20;;;;;;;;;;5036234;28;20558;-89
2023/12/09 06:27:46;;;;;;;4.57;4.17;;;;;;;;;;5036359;28;20258;-89
2023/12/09 06:30:40;;;;;;;6.87;4.50;;;;;;;;;;5036154;28;20267;-89
2023/12/09 06:36:04;;;;;;;5.10;3.27;;;;;;;;;;5030858;28;20632;-90
2023/12/09 06:38:34;;;;;;;5.83;3.70;;;;;;;;;;5035943;28;20212;-88
2023/12/09 06:41:20;;;;;;;5.03;3.60;;;;;;;;;;5036529;28;20231;-89
2023/12/09 06:43:48;;;;;;;4.40;3.43;;;;;;;;;;5034391;28;20200;-90
2023/12/09 06:49:34;;;;;;;6.80;2.90;;;;;;;;;;5035981;28;20268;-89
2023/12/09 06:52:18;;;;;;;4.60;4.23;;;;;;;;;;5035790;28;20192;-89
2023/12/09 06:54:57;;;;;;;7.83;4.40;;;;;;;;;;5037021;28;20291;-88
2023/12/09 06:57:35;;;;;;;9.40;3.77;;;;;;;;;;5036702;28;20191;-90
2023/12/09 07:00:25;;;;;;;4.27;3.87;;;;;;;;;;5034948;28;20332;-90
2023/12/09 07:03:21;;;;;;;5.00;3.87;;;;;;;;;;5039014;28;20228;-90
2023/12/09 07:06:09;;;;;;;4.97;4.47;;;;;;;;;;5040685;28;20228;-89
2023/12/09 07:11:32;;;;;;;6.67;4.30;;;;;;;;;;5014237;28;20200;-89
2023/12/09 07:14:23;;;;;;;4.63;3.33;;;;;;;;;;5035609;28;20226;-90
2023/12/09 07:16:56;;;;;;;6.47;3.47;;;;;;;;;;5051641;28;20199;-89
2023/12/09 07:28:20;;;;;;;6.77;3.17;;;;;;;;;;4095016;22;20231;-90
2023/12/09 07:30:53;;;;;;;2.60;2.40;;;;;;;;;;5026801;28;20204;-91
2023/12/09 07:36:30;;;;;;;3.27;3.00;;;;;;;;;;5014891;28;20283;-89
2023/12/09 07:39:19;;;;;;;3.40;2.53;;;;;;;;;;5015432;28;20225;-90
2023/12/09 07:42:01;;;;;;;4.97;3.13;;;;;;;;;;5005112;28;20319;-89
2023/12/09 07:44:45;;;;;;;3.10;2.70;;;;;;;;;;5005923;28;20209;-90
2023/12/09 07:47:23;;;;;;;2.23;2.03;;;;;;;;;;4999883;28;20217;-88
2023/12/09 07:49:52;;;;;;;4.13;2.83;;;;;;;;;;4996923;28;20205;-88
2023/12/09 07:52:33;;;;;;;4.10;2.97;;;;;;;;;;4995636;28;20201;-88
2023/12/09 07:55:17;;;;;;;;;;;;;;;;;;;;;
2023/12/09 07:58:04;;;;;;;4.30;3.43;;;;;;;;;;5007081;28;20213;-88
2023/12/09 08:00:40;;;;;;;3.40;2.73;;;;;;;;;;4995323;28;20217;-90
2023/12/09 08:03:47;;;;;;;3.37;2.97;;;;;;;;;;4997154;28;20246;-88
2023/12/09 08:09:35;;;;;;;3.53;2.90;;;;;;;;;;4922867;29;20207;-89
2023/12/09 08:12:06;;;;;;;3.27;2.47;;;;;;;;;;5012516;28;20227;-89
2023/12/09 08:23:43;;;;;;;8.70;6.63;;;;;;;;;;5026951;28;20243;-89
2023/12/09 08:29:13;;;;;;;8.93;4.93;;;;;;;;;;5017920;28;20765;-86
2023/12/09 08:35:02;;;;;;;7.70;3.83;;;;;;;;;;5017111;28;20200;-87
2023/12/09 09:43:14;;;;;;;5.17;3.53;;;;;;;;;;4988205;28;20243;-89
2023/12/09 09:46:22;;;;;;;7.47;3.93;;;;;;;;;;5002372;28;20297;-89
2023/12/09 09:49:21;;;;;;;;;;;;;;;;;;;;;
2023/12/09 09:57:56;;;;;;;2.97;2.70;;;;;;;;;;5013549;28;20589;-90
2023/12/09 10:06:28;;;;;;;2.67;2.47;;;;;;;;;;5011986;28;20225;-88
2023/12/09 10:09:11;;;;;;;4.13;2.70;;;;;;;;;;5018230;28;20231;-87
2023/12/09 10:11:53;;;;;;;4.50;2.80;;;;;;;;;;5016294;28;20221;-87
2023/12/09 10:14:39;;;;;;;2.57;2.20;;;;;;;;;;5014270;28;20725;-88
2023/12/09 10:17:15;;;;;;;2.63;2.40;;;;;;;;;;5013237;28;20705;-90
2023/12/09 10:20:11;;;;;;;4.00;2.37;;;;;;;;;;5017649;28;20236;-87
2023/12/09 10:22:50;;;;;;;3.80;2.67;;;;;;;;;;5025251;28;20236;-87
2023/12/09 10:43:18;;;;;;;6.60;3.70;;;;;;;;;;5003298;28;20240;-91
2023/12/09 10:45:59;;;;;;;3.37;2.83;;;;;;;;;;5013201;28;20330;-87
2023/12/09 10:48:41;;;;;;;3.40;3.03;;;;;;;;;;5024061;28;20227;-87
2023/12/09 10:51:13;;;;;;;4.57;3.27;;;;;;;;;;5023500;28;20331;-88
2023/12/09 10:54:00;;;;;;;;;;;;;;;;;;;;;
2023/12/09 10:56:45;;;;;;;4.20;3.13;;;;;;;;;;5013807;28;20337;-88
2023/12/09 10:59:25;;;;;;;4.93;3.00;;;;;;;;;;5012491;28;20568;-87
2023/12/09 11:01:55;;;;;;;6.07;3.10;;;;;;;;;;5013545;28;20331;-87
2023/12/09 11:04:35;;;;;;;2.60;2.40;;;;;;;;;;5014061;28;20232;-88
2023/12/09 11:07:49;;;;;;;;;;;;;;;;;;;;;
2023/12/09 11:16:19;;;;;;;6.77;5.03;;;;;;;;;;4995675;28;20235;-87
2023/12/09 11:18:51;;;;;;;8.93;4.77;;;;;;;;;;5013481;28;20217;-87
2023/12/09 11:21:26;;;;;;;9.13;4.10;;;;;;;;;;5013003;28;20205;-88
2023/12/09 11:24:03;;;;;;;4.27;3.20;;;;;;;;;;5012606;28;20232;-88
2023/12/09 11:26:39;;;;;;;3.67;3.37;;;;;;;;;;5011850;28;20201;-87
2023/12/09 11:29:12;;;;;;;4.03;3.73;;;;;;;;;;5007890;28;20201;-89
2023/12/09 11:31:55;;;;;;;6.30;2.20;;;;;;;;;;5003426;28;20285;-88
2023/12/09 11:34:59;;;;;;;;;;;;;;;;;;;;;
2023/12/09 11:37:33;;;;;;;5.07;3.10;;;;;;;;;;4995946;28;20212;-88
2023/12/09 11:40:05;;;;;;;5.77;3.73;;;;;;;;;;5000365;28;20264;-89
2023/12/09 11:42:42;;;;;;;4.40;3.27;;;;;;;;;;4996020;28;20225;-88
2023/12/09 11:45:29;;;;;;;;;;;;;;;;;;;;;
2023/12/09 11:48:41;;;;;;;;;;;;;;;;;;;;;
2023/12/09 11:54:15;;;;;;;4.03;3.63;;;;;;;;;;4990181;28;20303;-88
2023/12/09 11:59:53;;;;;;;5.73;3.47;;;;;;;;;;4985171;28;20205;-89
2023/12/09 12:02:26;;;;;;;9.87;4.10;;;;;;;;;;4994354;28;20201;-89
2023/12/09 12:11:36;;;;;;;5.50;3.47;;;;;;;;;;4986172;28;20195;-86
2023/12/09 12:14:09;;;;;;;4.00;3.60;;;;;;;;;;4995086;28;20218;-89
2023/12/09 12:16:51;;;;;;;6.00;2.93;;;;;;;;;;4994734;28;20236;-87
2023/12/09 12:19:43;;;;;;;6.23;2.87;;;;;;;;;;4995105;28;20220;-88
2023/12/09 12:22:19;;;;;;;4.97;3.83;;;;;;;;;;4993021;28;20209;-88
2023/12/09 12:25:20;;;;;;;5.57;4.33;;;;;;;;;;4995733;28;20224;-89
2023/12/09 12:27:57;;;;;;;5.17;3.30;;;;;;;;;;4998925;28;20263;-90
2023/12/09 12:30:59;;;;;;;6.17;3.87;;;;;;;;;;4997472;28;20265;-89
2023/12/09 12:36:27;;;;;;;7.67;4.80;;;;;;;;;;5011975;28;20205;-89
2023/12/09 12:39:15;;;;;;;8.83;4.07;;;;;;;;;;5012170;28;20316;-89
2023/12/09 12:42:08;;;;;;;4.50;4.07;;;;;;;;;;5012654;28;20272;-87
2023/12/09 12:48:12;;;;;;;;;;;;;;;;;;;;;
2023/12/09 12:51:03;;;;;;;6.50;4.30;;;;;;;;;;4997694;28;20214;-89
2023/12/09 12:56:49;;;;;;;;;;;;;;;;;;;;;
2023/12/09 12:59:55;;;;;;;5.83;4.50;;;;;;;;;;4999003;28;20300;-88
2023/12/09 13:02:31;;;;;;;6.37;4.53;;;;;;;;;;4999982;28;20204;-88
2023/12/09 13:05:13;;;;;;;7.87;4.40;;;;;;;;;;4996482;28;20243;-87
2023/12/09 13:14:10;;;;;;;6.20;4.43;;;;;;;;;;5100781;28;20208;-89
2023/12/09 13:17:03;;;;;;;7.93;4.77;;;;;;;;;;5100162;28;20247;-88
2023/12/09 13:19:46;;;;;;;8.07;5.20;;;;;;;;;;5093627;28;20775;-89
2023/12/09 13:22:20;;;;;;;8.53;4.90;;;;;;;;;;5096008;28;20277;-89
2023/12/09 13:24:55;;;;;;;10.80;5.93;;;;;;;;;;5095851;28;20210;-87
2023/12/09 13:30:39;;;;;;;8.17;4.97;;;;;;;;;;5094755;28;20233;-88
2023/12/09 13:39:52;;;;;;;10.83;6.03;;;;;;;;;;4971573;28;20840;-89
2023/12/09 13:42:52;;;;;;;;;;;;;;;;;;;;;
2023/12/09 13:51:26;;;;;;;7.80;6.17;;;;;;;;;;4949865;28;20217;-88
2023/12/09 14:17:26;;;;;;;12.77;5.83;;;;;;;;;;5070695;28;20203;-88
2023/12/09 14:20:06;;;;;;;10.87;6.27;;;;;;;;;;5079160;28;20205;-89
2023/12/09 14:22:42;;;;;;;12.50;7.33;;;;;;;;;;5064353;28;20206;-89
2023/12/09 14:31:40;;;;;;;11.67;5.83;;;;;;;;;;5058712;28;20227;-87
2023/12/09 14:40:29;;;;;;;12.03;6.50;;;;;;;;;;5083016;22;20315;-89
2023/12/09 14:43:06;;;;;;;10.53;6.13;;;;;;;;;;5060983;28;20298;-90
2023/12/09 14:45:38;;;;;;;16.57;7.07;;;;;;;;;;5059321;28;20582;-88
2023/12/09 14:48:15;;;;;;;8.17;5.80;;;;;;;;;;5061082;28;20448;-90
2023/12/09 14:50:44;;;;;;;7.23;5.33;;;;;;;;;;5061040;28;20737;-88
2023/12/09 14:53:37;;;;;;;10.10;5.00;;;;;;;;;;5061711;28;20223;-90
2023/12/09 14:58:58;;;;;;;10.13;5.40;;;;;;;;;;5062176;28;20462;-89
2023/12/09 15:02:13;;;;;;;12.57;6.60;;;;;;;;;;5061767;28;20198;-89
2023/12/09 15:07:40;;;;;;;10.83;6.30;;;;;;;;;;5064647;28;20206;-88
2023/12/09 15:16:23;;;;;;;9.93;5.87;;;;;;;;;;5053376;28;20194;-88
2023/12/09 15:19:07;;;;;;;19.07;7.00;;;;;;;;;;5075874;28;20184;-88
2023/12/09 15:22:11;;;;;;;15.10;6.83;;;;;;;;;;5073963;28;20272;-88
2023/12/09 15:33:49;;;;;;;22.10;10.93;;;;;;;;;;5053605;28;20211;-88
2023/12/09 15:36:43;;;;;;;18.93;10.00;;;;;;;;;;5059163;28;20204;-89
2023/12/09 15:39:12;;;;;;;23.93;11.23;;;;;;;;;;5047181;28;20231;-89
2023/12/09 15:41:41;;;;;;;13.77;8.80;;;;;;;;;;5039187;28;20212;-88
2023/12/09 15:44:23;;;;;;;21.67;8.37;;;;;;;;;;5038804;28;20226;-89
2023/12/09 15:47:02;;;;;;;15.03;8.57;;;;;;;;;;5036956;28;20294;-88
2023/12/09 15:49:36;;;;;;;21.53;10.10;;;;;;;;;;5016868;28;20319;-88
2023/12/09 15:52:22;;;;;;;24.87;11.40;;;;;;;;;;5033434;28;20202;-88
2023/12/09 15:55:14;;;;;;;14.53;9.93;;;;;;;;;;5030026;28;20230;-89
2023/12/09 16:00:54;;;;;;;;;;;;;;;;;;;;;
2023/12/09 16:04:02;;;;;;;;;;;;;;;;;;;;;
2023/12/09 16:07:15;;;;;;;17.37;9.03;;;;;;;;;;5031585;28;20665;-90
2023/12/09 16:10:10;;;;;;;19.70;10.43;;;;;;;;;;5031398;28;20728;-90
2023/12/09 16:13:16;;;;;;;;;;;;;;;;;;;;;
2023/12/09 16:16:05;;;;;;;19.83;9.20;;;;;;;;;;5023652;28;20203;-89
2023/12/09 16:19:02;;;;;;;14.93;8.57;;;;;;;;;;5029924;28;20202;-89
2023/12/09 16:21:51;;;;;;;30.77;15.23;;;;;;;;;;5025408;28;20296;-89
2023/12/09 16:24:45;;;;;;;27.07;14.47;;;;;;;;;;5043381;28;20282;-90
2023/12/09 16:30:16;;;;;;;25.87;14.07;;;;;;;;;;5049693;28;20214;-88
2023/12/09 17:20:27;;;;;;;19.03;10.47;;;;;;;;;;6222992;23;20198;-89
2023/12/09 17:29:46;;;;;;;29.53;14.47;;;;;;;;;;6199746;23;20181;-90
2023/12/09 18:47:25;;;;;;;25.97;11.73;;;;;;;;;;6237780;22;20671;-87
2023/12/09 18:56:46;;;;;;;27.67;13.33;;;;;;;;;;6277687;22;20206;-91
2023/12/09 19:08:43;;;;;;;27.70;12.77;;;;;;;;;;6288738;22;20169;-88
2023/12/09 22:25:15;;;;;;;20.27;10.70;;;;;;;;;;6265359;22;20236;-88
2023/12/09 22:27:44;;;;;;;22.23;12.07;;;;;;;;;;6273182;22;20170;-88
2023/12/09 22:30:13;;;;;;;21.37;10.93;;;;;;;;;;6274293;22;20555;-88
2023/12/09 22:32:41;;;;;;;24.57;11.87;;;;;;;;;;6274119;22;20229;-88
2023/12/09 22:35:09;;;;;;;20.97;12.10;;;;;;;;;;6274491;22;20169;-88
2023/12/09 22:37:39;;;;;;;24.87;11.53;;;;;;;;;;6274605;22;20220;-89
2023/12/09 22:40:08;;;;;;;23.57;11.47;;;;;;;;;;6274403;22;20193;-88
2023/12/09 22:42:38;;;;;;;31.03;12.23;;;;;;;;;;6274813;22;20170;-89
2023/12/09 22:45:09;;;;;;;28.70;12.77;;;;;;;;;;6274143;22;20220;-89
2023/12/09 22:47:37;;;;;;;24.37;11.27;;;;;;;;;;6275786;22;20170;-89
2023/12/09 22:50:05;;;;;;;28.93;13.90;;;;;;;;;;6275544;22;20174;-88
2023/12/09 22:52:33;;;;;;;21.97;11.63;;;;;;;;;;6275047;22;20213;-88
2023/12/09 22:55:00;;;;;;;18.87;9.83;;;;;;;;;;6274976;22;20173;-88
2023/12/09 22:57:29;;;;;;;19.17;11.40;;;;;;;;;;6275066;22;20177;-89
2023/12/09 22:59:58;;;;;;;25.87;11.57;;;;;;;;;;6273328;22;20166;-88
2023/12/09 23:02:27;;;;;;;23.47;9.93;;;;;;;;;;6274411;22;20170;-88
2023/12/09 23:04:55;;;;;;;19.47;11.00;;;;;;;;;;6274363;22;20177;-89
2023/12/09 23:07:23;;;;;;;22.07;10.50;;;;;;;;;;6274364;22;20209;-89
2023/12/09 23:09:50;;;;;;;19.93;10.40;;;;;;;;;;6274257;22;20245;-89
2023/12/09 23:12:18;;;;;;;24.47;10.80;;;;;;;;;;6274345;22;20198;-88
2023/12/09 23:14:46;;;;;;;24.87;11.57;;;;;;;;;;6274859;22;20178;-89
2023/12/09 23:17:16;;;;;;;24.37;11.27;;;;;;;;;;6273953;22;20162;-88
2023/12/09 23:19:46;;;;;;;26.67;11.63;;;;;;;;;;6275716;22;20166;-87
2023/12/09 23:22:13;;;;;;;19.63;9.83;;;;;;;;;;6275980;22;20167;-88
2023/12/09 23:24:41;;;;;;;18.20;9.20;;;;;;;;;;6276286;22;20751;-88
2023/12/09 23:27:09;;;;;;;28.97;11.40;;;;;;;;;;6276262;22;20173;-88
2023/12/09 23:29:36;;;;;;;20.37;10.47;;;;;;;;;;6276187;22;20235;-88
2023/12/09 23:32:04;;;;;;;30.87;12.40;;;;;;;;;;6279395;22;20227;-90
2023/12/09 23:34:35;;;;;;;39.03;11.83;;;;;;;;;;6278528;22;20181;-91
2023/12/09 23:37:04;;;;;;;24.50;10.27;;;;;;;;;;6278538;22;20166;-91
2023/12/09 23:39:32;;;;;;;19.60;10.63;;;;;;;;;;6279597;22;20233;-91
2023/12/09 23:42:03;;;;;;;21.23;11.27;;;;;;;;;;6278985;22;20212;-91
2023/12/09 23:44:34;;;;;;;13.77;9.17;;;;;;;;;;6278652;22;20185;-91
2023/12/09 23:47:02;;;;;;;19.70;10.27;;;;;;;;;;6279284;22;20185;-91
2023/12/09 23:49:31;;;;;;;25.77;11.57;;;;;;;;;;6277216;22;20166;-91
2023/12/09 23:52:01;;;;;;;20.27;10.37;;;;;;;;;;6278894;22;20162;-91
2023/12/09 23:54:33;;;;;;;24.57;10.27;;;;;;;;;;6278848;22;20166;-90
2023/12/09 23:57:02;;;;;;;20.87;10.67;;;;;;;;;;6278743;22;20177;-91
2023/12/09 23:59:30;;;;;;;18.87;11.63;;;;;;;;;;6279067;22;20170;-91
